sensor_id;sensor_type;location;lat;lon;timestamp;temperature;humidity
10263;DHT22;5177;50.068;8.156;2023-01-01T00:00:38;11.60;99.90
10263;DHT22;5177;50.068;8.156;2023-01-01T00:03:03;11.50;99.90
10263;DHT22;5177;50.068;8.156;2023-01-01T00:05:29;11.50;99.90
10263;DHT22;5177;50.068;8.156;2023-01-01T00:07:54;11.40;99.90
10263;DHT22;5177;50.068;8.156;2023-01-01T00:10:20;11.30;99.90
10263;DHT22;5177;50.068;8.156;2023-01-01T00:12:55;11.30;99.90
10263;DHT22;5177;50.068;8.156;2023-01-01T00:15:20;11.20;99.90
10263;DHT22;5177;50.068;8.156;2023-01-01T00:17:46;11.10;99.90
10263;DHT22;5177;50.068;8.156;2023-01-01T00:20:12;11.00;99.90
10263;DHT22;5177;50.068;8.156;2023-01-01T00:22:37;10.90;99.90
10263;DHT22;5177;50.068;8.156;2023-01-01T00:25:03;10.90;99.90
10263;DHT22;5177;50.068;8.156;2023-01-01T00:27:29;10.90;99.90
10263;DHT22;5177;50.068;8.156;2023-01-01T00:29:54;10.80;99.90
10263;DHT22;5177;50.068;8.156;2023-01-01T00:32:20;10.70;99.90
10263;DHT22;5177;50.068;8.156;2023-01-01T00:34:45;10.70;99.90
10263;DHT22;5177;50.068;8.156;2023-01-01T00:37:11;10.60;99.90
10263;DHT22;5177;50.068;8.156;2023-01-01T00:39:36;10.60;99.90
10263;DHT22;5177;50.068;8.156;2023-01-01T00:42:02;10.60;99.90
10263;DHT22;5177;50.068;8.156;2023-01-01T00:44:27;10.50;99.90
10263;DHT22;5177;50.068;8.156;2023-01-01T00:46:53;10.40;99.90
10263;DHT22;5177;50.068;8.156;2023-01-01T00:49:18;10.40;99.90
10263;DHT22;5177;50.068;8.156;2023-01-01T00:51:44;10.40;99.90
10263;DHT22;5177;50.068;8.156;2023-01-01T00:54:09;10.50;99.90
10263;DHT22;5177;50.068;8.156;2023-01-01T00:56:35;10.40;99.90
10263;DHT22;5177;50.068;8.156;2023-01-01T00:59:00;10.40;99.90
10263;DHT22;5177;50.068;8.156;2023-01-01T01:01:26;10.40;99.90
10263;DHT22;5177;50.068;8.156;2023-01-01T01:06:45;10.40;99.90
10263;DHT22;5177;50.068;8.156;2023-01-01T01:09:10;10.30;99.90
10263;DHT22;5177;50.068;8.156;2023-01-01T01:11:36;10.30;99.90
10263;DHT22;5177;50.068;8.156;2023-01-01T01:14:01;10.20;99.90
10263;DHT22;5177;50.068;8.156;2023-01-01T01:16:28;10.20;99.90
10263;DHT22;5177;50.068;8.156;2023-01-01T01:18:54;10.30;99.90
10263;DHT22;5177;50.068;8.156;2023-01-01T01:21:22;10.20;99.90
10263;DHT22;5177;50.068;8.156;2023-01-01T01:23:48;10.20;99.90
10263;DHT22;5177;50.068;8.156;2023-01-01T01:26:25;10.20;99.90
10263;DHT22;5177;50.068;8.156;2023-01-01T01:28:51;10.10;99.90
10263;DHT22;5177;50.068;8.156;2023-01-01T01:31:19;10.10;99.90
10263;DHT22;5177;50.068;8.156;2023-01-01T01:33:46;10.10;99.90
10263;DHT22;5177;50.068;8.156;2023-01-01T01:36:12;10.10;99.90
10263;DHT22;5177;50.068;8.156;2023-01-01T01:38:38;10.20;99.90
10263;DHT22;5177;50.068;8.156;2023-01-01T01:41:04;10.20;99.90
10263;DHT22;5177;50.068;8.156;2023-01-01T01:46:20;10.20;99.90
10263;DHT22;5177;50.068;8.156;2023-01-01T01:48:45;10.40;99.90
10263;DHT22;5177;50.068;8.156;2023-01-01T01:51:12;10.50;99.90
10263;DHT22;5177;50.068;8.156;2023-01-01T01:53:47;10.50;99.90
10263;DHT22;5177;50.068;8.156;2023-01-01T01:56:14;10.40;99.90
10263;DHT22;5177;50.068;8.156;2023-01-01T01:58:41;10.60;99.90
10263;DHT22;5177;50.068;8.156;2023-01-01T02:01:07;10.70;99.90
10263;DHT22;5177;50.068;8.156;2023-01-01T02:06:04;11.00;99.90
10263;DHT22;5177;50.068;8.156;2023-01-01T02:08:31;11.00;99.90
10263;DHT22;5177;50.068;8.156;2023-01-01T02:10:56;11.10;99.90
10263;DHT22;5177;50.068;8.156;2023-01-01T02:13:22;11.10;99.90
10263;DHT22;5177;50.068;8.156;2023-01-01T02:18:13;11.00;99.90
10263;DHT22;5177;50.068;8.156;2023-01-01T02:20:58;11.00;99.90
10263;DHT22;5177;50.068;8.156;2023-01-01T02:26:00;10.80;99.90
10263;DHT22;5177;50.068;8.156;2023-01-01T02:28:43;10.70;99.90
10263;DHT22;5177;50.068;8.156;2023-01-01T02:31:13;10.60;99.90
10263;DHT22;5177;50.068;8.156;2023-01-01T02:33:39;10.50;99.90
10263;DHT22;5177;50.068;8.156;2023-01-01T02:36:06;10.50;99.90
10263;DHT22;5177;50.068;8.156;2023-01-01T02:38:36;10.50;99.90
10263;DHT22;5177;50.068;8.156;2023-01-01T02:41:07;10.40;99.90
10263;DHT22;5177;50.068;8.156;2023-01-01T02:43:34;10.40;99.90
10263;DHT22;5177;50.068;8.156;2023-01-01T02:46:03;10.30;99.90
10263;DHT22;5177;50.068;8.156;2023-01-01T02:48:46;10.30;99.90
10263;DHT22;5177;50.068;8.156;2023-01-01T02:53:51;10.10;99.90
10263;DHT22;5177;50.068;8.156;2023-01-01T02:56:31;10.10;99.90
10263;DHT22;5177;50.068;8.156;2023-01-01T02:59:01;10.00;99.90
10263;DHT22;5177;50.068;8.156;2023-01-01T03:01:54;10.00;99.90
10263;DHT22;5177;50.068;8.156;2023-01-01T03:04:27;9.90;99.90
10263;DHT22;5177;50.068;8.156;2023-01-01T03:06:54;9.90;99.90
10263;DHT22;5177;50.068;8.156;2023-01-01T03:09:42;9.90;99.90
10263;DHT22;5177;50.068;8.156;2023-01-01T03:12:10;9.90;99.90
10263;DHT22;5177;50.068;8.156;2023-01-01T03:17:40;9.90;99.90
10263;DHT22;5177;50.068;8.156;2023-01-01T03:20:10;9.80;99.90
10263;DHT22;5177;50.068;8.156;2023-01-01T03:22:37;9.80;99.90
10263;DHT22;5177;50.068;8.156;2023-01-01T03:25:08;9.80;99.90
10263;DHT22;5177;50.068;8.156;2023-01-01T03:27:40;9.80;99.90
10263;DHT22;5177;50.068;8.156;2023-01-01T03:30:08;9.70;99.90
10263;DHT22;5177;50.068;8.156;2023-01-01T03:32:38;9.80;99.90
10263;DHT22;5177;50.068;8.156;2023-01-01T03:35:25;9.70;99.90
10263;DHT22;5177;50.068;8.156;2023-01-01T03:37:52;9.60;99.90
10263;DHT22;5177;50.068;8.156;2023-01-01T03:40:19;9.60;99.90
10263;DHT22;5177;50.068;8.156;2023-01-01T03:42:53;9.50;99.90
10263;DHT22;5177;50.068;8.156;2023-01-01T03:45:21;9.50;99.90
10263;DHT22;5177;50.068;8.156;2023-01-01T03:47:49;9.40;99.90
10263;DHT22;5177;50.068;8.156;2023-01-01T03:50:14;9.40;99.90
10263;DHT22;5177;50.068;8.156;2023-01-01T03:52:49;9.40;99.90
10263;DHT22;5177;50.068;8.156;2023-01-01T03:55:21;9.40;99.90
10263;DHT22;5177;50.068;8.156;2023-01-01T03:57:56;9.30;99.90
10263;DHT22;5177;50.068;8.156;2023-01-01T04:00:27;9.30;99.90
10263;DHT22;5177;50.068;8.156;2023-01-01T04:02:56;9.20;99.90
10263;DHT22;5177;50.068;8.156;2023-01-01T04:05:23;9.20;99.90
10263;DHT22;5177;50.068;8.156;2023-01-01T04:07:49;9.20;99.90
10263;DHT22;5177;50.068;8.156;2023-01-01T04:10:15;9.10;99.90
10263;DHT22;5177;50.068;8.156;2023-01-01T04:12:47;9.10;99.90
10263;DHT22;5177;50.068;8.156;2023-01-01T04:15:14;9.00;99.90
10263;DHT22;5177;50.068;8.156;2023-01-01T04:17:40;9.00;99.90
10263;DHT22;5177;50.068;8.156;2023-01-01T04:20:05;8.90;99.90
10263;DHT22;5177;50.068;8.156;2023-01-01T04:22:32;8.90;99.90
10263;DHT22;5177;50.068;8.156;2023-01-01T04:24:57;8.90;99.90
10263;DHT22;5177;50.068;8.156;2023-01-01T04:27:23;8.80;99.90
10263;DHT22;5177;50.068;8.156;2023-01-01T04:29:48;8.80;99.90
10263;DHT22;5177;50.068;8.156;2023-01-01T04:32:14;8.70;99.90
10263;DHT22;5177;50.068;8.156;2023-01-01T04:34:39;8.70;99.90
10263;DHT22;5177;50.068;8.156;2023-01-01T04:37:05;8.70;99.90
10263;DHT22;5177;50.068;8.156;2023-01-01T04:39:30;8.70;99.90
10263;DHT22;5177;50.068;8.156;2023-01-01T04:41:56;8.70;99.90
10263;DHT22;5177;50.068;8.156;2023-01-01T04:44:21;8.70;99.90
10263;DHT22;5177;50.068;8.156;2023-01-01T04:46:47;8.70;99.90
10263;DHT22;5177;50.068;8.156;2023-01-01T04:49:12;8.60;99.90
10263;DHT22;5177;50.068;8.156;2023-01-01T04:51:38;8.60;99.90
10263;DHT22;5177;50.068;8.156;2023-01-01T04:54:03;8.60;99.90
10263;DHT22;5177;50.068;8.156;2023-01-01T04:56:29;8.60;99.90
10263;DHT22;5177;50.068;8.156;2023-01-01T04:58:54;8.60;99.90
10263;DHT22;5177;50.068;8.156;2023-01-01T05:01:25;8.60;99.90
10263;DHT22;5177;50.068;8.156;2023-01-01T05:03:51;8.60;99.90
10263;DHT22;5177;50.068;8.156;2023-01-01T05:06:16;8.50;99.90
10263;DHT22;5177;50.068;8.156;2023-01-01T05:08:43;8.50;99.90
10263;DHT22;5177;50.068;8.156;2023-01-01T05:11:10;8.40;99.90
10263;DHT22;5177;50.068;8.156;2023-01-01T05:13:37;8.40;99.90
10263;DHT22;5177;50.068;8.156;2023-01-01T05:16:03;8.30;99.90
10263;DHT22;5177;50.068;8.156;2023-01-01T05:18:29;8.30;99.90
10263;DHT22;5177;50.068;8.156;2023-01-01T05:20:58;8.30;99.90
10263;DHT22;5177;50.068;8.156;2023-01-01T05:23:24;8.20;99.90
10263;DHT22;5177;50.068;8.156;2023-01-01T05:25:49;8.20;99.90
10263;DHT22;5177;50.068;8.156;2023-01-01T05:28:15;8.10;99.90
10263;DHT22;5177;50.068;8.156;2023-01-01T05:30:40;8.10;99.90
10263;DHT22;5177;50.068;8.156;2023-01-01T05:33:06;8.20;99.90
10263;DHT22;5177;50.068;8.156;2023-01-01T05:35:31;8.10;99.90
10263;DHT22;5177;50.068;8.156;2023-01-01T05:37:57;8.10;99.90
10263;DHT22;5177;50.068;8.156;2023-01-01T05:40:22;8.10;99.90
10263;DHT22;5177;50.068;8.156;2023-01-01T05:42:48;8.10;99.90
10263;DHT22;5177;50.068;8.156;2023-01-01T05:45:13;8.10;99.90
10263;DHT22;5177;50.068;8.156;2023-01-01T05:47:39;8.10;99.90
10263;DHT22;5177;50.068;8.156;2023-01-01T05:50:04;8.20;99.90
10263;DHT22;5177;50.068;8.156;2023-01-01T05:52:30;8.30;99.90
10263;DHT22;5177;50.068;8.156;2023-01-01T05:54:55;8.30;99.90
10263;DHT22;5177;50.068;8.156;2023-01-01T05:57:22;8.40;99.90
10263;DHT22;5177;50.068;8.156;2023-01-01T05:59:48;8.60;99.90
10263;DHT22;5177;50.068;8.156;2023-01-01T06:02:13;8.90;99.90
10263;DHT22;5177;50.068;8.156;2023-01-01T06:04:39;9.00;99.90
10263;DHT22;5177;50.068;8.156;2023-01-01T06:07:04;9.10;99.90
10263;DHT22;5177;50.068;8.156;2023-01-01T06:09:30;9.10;99.90
10263;DHT22;5177;50.068;8.156;2023-01-01T06:11:55;9.00;99.90
10263;DHT22;5177;50.068;8.156;2023-01-01T06:14:21;8.80;99.90
10263;DHT22;5177;50.068;8.156;2023-01-01T06:16:46;8.70;99.90
10263;DHT22;5177;50.068;8.156;2023-01-01T06:19:11;8.60;99.90
10263;DHT22;5177;50.068;8.156;2023-01-01T06:21:37;8.50;99.90
10263;DHT22;5177;50.068;8.156;2023-01-01T06:24:02;8.40;99.90
10263;DHT22;5177;50.068;8.156;2023-01-01T06:26:29;8.40;99.90
10263;DHT22;5177;50.068;8.156;2023-01-01T06:28:55;8.40;99.90
10263;DHT22;5177;50.068;8.156;2023-01-01T06:31:21;8.30;99.90
10263;DHT22;5177;50.068;8.156;2023-01-01T06:33:46;8.30;99.90
10263;DHT22;5177;50.068;8.156;2023-01-01T06:36:14;8.30;99.90
10263;DHT22;5177;50.068;8.156;2023-01-01T06:38:40;8.20;99.90
10263;DHT22;5177;50.068;8.156;2023-01-01T06:41:08;8.20;99.90
10263;DHT22;5177;50.068;8.156;2023-01-01T06:43:34;8.10;99.90
10263;DHT22;5177;50.068;8.156;2023-01-01T06:46:07;8.10;99.90
10263;DHT22;5177;50.068;8.156;2023-01-01T06:48:36;8.10;99.90
10263;DHT22;5177;50.068;8.156;2023-01-01T06:51:06;8.10;99.90
10263;DHT22;5177;50.068;8.156;2023-01-01T06:53:32;8.10;99.90
10263;DHT22;5177;50.068;8.156;2023-01-01T06:55:57;8.10;99.90
10263;DHT22;5177;50.068;8.156;2023-01-01T06:58:23;8.10;99.90
10263;DHT22;5177;50.068;8.156;2023-01-01T07:00:48;8.10;99.90
10263;DHT22;5177;50.068;8.156;2023-01-01T07:03:14;8.10;99.90
10263;DHT22;5177;50.068;8.156;2023-01-01T07:05:39;8.00;99.90
10263;DHT22;5177;50.068;8.156;2023-01-01T07:08:05;8.00;99.90
10263;DHT22;5177;50.068;8.156;2023-01-01T07:10:30;7.90;99.90
10263;DHT22;5177;50.068;8.156;2023-01-01T07:12:56;7.90;99.90
10263;DHT22;5177;50.068;8.156;2023-01-01T07:15:21;7.80;99.90
10263;DHT22;5177;50.068;8.156;2023-01-01T07:17:47;7.80;99.90
10263;DHT22;5177;50.068;8.156;2023-01-01T07:20:12;7.80;99.90
10263;DHT22;5177;50.068;8.156;2023-01-01T07:22:38;7.80;99.90
10263;DHT22;5177;50.068;8.156;2023-01-01T07:25:04;7.80;99.90
10263;DHT22;5177;50.068;8.156;2023-01-01T07:27:30;7.80;99.90
10263;DHT22;5177;50.068;8.156;2023-01-01T07:29:55;7.80;99.90
10263;DHT22;5177;50.068;8.156;2023-01-01T07:32:21;7.80;99.90
10263;DHT22;5177;50.068;8.156;2023-01-01T07:34:46;7.80;99.90
10263;DHT22;5177;50.068;8.156;2023-01-01T07:37:12;7.70;99.90
10263;DHT22;5177;50.068;8.156;2023-01-01T07:39:37;7.80;99.90
10263;DHT22;5177;50.068;8.156;2023-01-01T07:42:03;7.80;99.90
10263;DHT22;5177;50.068;8.156;2023-01-01T07:44:28;7.80;99.90
10263;DHT22;5177;50.068;8.156;2023-01-01T07:47:03;7.80;99.90
10263;DHT22;5177;50.068;8.156;2023-01-01T07:49:29;7.90;99.90
10263;DHT22;5177;50.068;8.156;2023-01-01T07:51:55;7.90;99.90
10263;DHT22;5177;50.068;8.156;2023-01-01T07:54:20;7.90;99.90
10263;DHT22;5177;50.068;8.156;2023-01-01T07:56:46;7.90;99.90
10263;DHT22;5177;50.068;8.156;2023-01-01T07:59:11;8.00;99.90
10263;DHT22;5177;50.068;8.156;2023-01-01T08:01:37;8.00;99.90
10263;DHT22;5177;50.068;8.156;2023-01-01T08:04:02;8.00;99.90
10263;DHT22;5177;50.068;8.156;2023-01-01T08:06:28;7.90;99.90
10263;DHT22;5177;50.068;8.156;2023-01-01T08:08:53;8.00;99.90
10263;DHT22;5177;50.068;8.156;2023-01-01T08:11:19;8.00;99.90
10263;DHT22;5177;50.068;8.156;2023-01-01T08:13:44;8.00;99.90
10263;DHT22;5177;50.068;8.156;2023-01-01T08:16:10;8.10;99.90
10263;DHT22;5177;50.068;8.156;2023-01-01T08:18:35;8.10;99.90
10263;DHT22;5177;50.068;8.156;2023-01-01T08:21:01;8.10;99.90
10263;DHT22;5177;50.068;8.156;2023-01-01T08:23:27;8.20;99.90
10263;DHT22;5177;50.068;8.156;2023-01-01T08:25:53;8.30;99.90
10263;DHT22;5177;50.068;8.156;2023-01-01T08:28:22;8.30;99.90
10263;DHT22;5177;50.068;8.156;2023-01-01T08:30:47;8.40;99.90
10263;DHT22;5177;50.068;8.156;2023-01-01T08:33:13;8.50;99.90
10263;DHT22;5177;50.068;8.156;2023-01-01T08:35:39;8.60;99.90
10263;DHT22;5177;50.068;8.156;2023-01-01T08:38:05;8.70;99.90
10263;DHT22;5177;50.068;8.156;2023-01-01T08:40:31;8.70;99.90
10263;DHT22;5177;50.068;8.156;2023-01-01T08:42:56;8.80;99.90
10263;DHT22;5177;50.068;8.156;2023-01-01T08:45:22;8.80;99.90
10263;DHT22;5177;50.068;8.156;2023-01-01T08:47:47;8.90;99.90
10263;DHT22;5177;50.068;8.156;2023-01-01T08:50:13;9.00;99.90
10263;DHT22;5177;50.068;8.156;2023-01-01T08:52:38;9.10;99.90
10263;DHT22;5177;50.068;8.156;2023-01-01T08:55:04;9.20;99.90
10263;DHT22;5177;50.068;8.156;2023-01-01T08:57:30;9.30;99.90
10263;DHT22;5177;50.068;8.156;2023-01-01T08:59:55;9.50;99.90
10263;DHT22;5177;50.068;8.156;2023-01-01T09:02:21;9.50;99.90
10263;DHT22;5177;50.068;8.156;2023-01-01T09:04:47;9.50;99.90
10263;DHT22;5177;50.068;8.156;2023-01-01T09:07:12;9.60;99.90
10263;DHT22;5177;50.068;8.156;2023-01-01T09:09:38;9.60;99.90
10263;DHT22;5177;50.068;8.156;2023-01-01T09:12:03;9.70;99.90
10263;DHT22;5177;50.068;8.156;2023-01-01T09:14:31;9.80;99.90
10263;DHT22;5177;50.068;8.156;2023-01-01T09:16:56;9.80;99.90
10263;DHT22;5177;50.068;8.156;2023-01-01T09:19:22;9.90;99.90
10263;DHT22;5177;50.068;8.156;2023-01-01T09:21:47;9.90;99.90
10263;DHT22;5177;50.068;8.156;2023-01-01T09:24:13;10.00;99.90
10263;DHT22;5177;50.068;8.156;2023-01-01T09:26:38;10.00;99.90
10263;DHT22;5177;50.068;8.156;2023-01-01T09:29:04;10.10;99.90
10263;DHT22;5177;50.068;8.156;2023-01-01T09:31:29;10.30;99.90
10263;DHT22;5177;50.068;8.156;2023-01-01T09:33:55;10.40;99.90
10263;DHT22;5177;50.068;8.156;2023-01-01T09:38:49;10.70;99.90
10263;DHT22;5177;50.068;8.156;2023-01-01T09:41:28;11.00;99.90
10263;DHT22;5177;50.068;8.156;2023-01-01T09:44:13;11.20;99.90
10263;DHT22;5177;50.068;8.156;2023-01-01T09:46:41;11.50;99.90
10263;DHT22;5177;50.068;8.156;2023-01-01T09:49:11;11.70;99.90
10263;DHT22;5177;50.068;8.156;2023-01-01T09:51:38;11.90;99.90
10263;DHT22;5177;50.068;8.156;2023-01-01T09:56:43;12.50;99.90
10263;DHT22;5177;50.068;8.156;2023-01-01T09:59:09;12.70;99.90
10263;DHT22;5177;50.068;8.156;2023-01-01T10:01:49;13.00;99.90
10263;DHT22;5177;50.068;8.156;2023-01-01T10:04:29;13.20;99.90
10263;DHT22;5177;50.068;8.156;2023-01-01T10:09:34;13.40;99.90
10263;DHT22;5177;50.068;8.156;2023-01-01T10:12:04;13.50;99.90
10263;DHT22;5177;50.068;8.156;2023-01-01T10:14:36;13.70;99.90
10263;DHT22;5177;50.068;8.156;2023-01-01T10:17:07;13.80;99.90
10263;DHT22;5177;50.068;8.156;2023-01-01T10:19:35;13.90;99.90
10263;DHT22;5177;50.068;8.156;2023-01-01T10:22:10;14.00;99.90
10263;DHT22;5177;50.068;8.156;2023-01-01T10:24:40;14.10;99.90
10263;DHT22;5177;50.068;8.156;2023-01-01T10:27:08;14.00;99.90
10263;DHT22;5177;50.068;8.156;2023-01-01T10:29:40;14.20;99.90
10263;DHT22;5177;50.068;8.156;2023-01-01T10:32:15;14.10;99.90
10263;DHT22;5177;50.068;8.156;2023-01-01T10:34:41;14.20;99.90
10263;DHT22;5177;50.068;8.156;2023-01-01T10:37:07;14.20;99.90
10263;DHT22;5177;50.068;8.156;2023-01-01T10:39:33;14.20;99.90
10263;DHT22;5177;50.068;8.156;2023-01-01T10:41:59;14.20;99.90
10263;DHT22;5177;50.068;8.156;2023-01-01T10:44:27;14.20;99.90
10263;DHT22;5177;50.068;8.156;2023-01-01T10:46:58;14.20;99.90
10263;DHT22;5177;50.068;8.156;2023-01-01T10:49:23;14.20;99.90
10263;DHT22;5177;50.068;8.156;2023-01-01T10:51:50;14.20;99.90
10263;DHT22;5177;50.068;8.156;2023-01-01T10:56:47;14.30;99.90
10263;DHT22;5177;50.068;8.156;2023-01-01T10:59:33;14.20;99.90
10263;DHT22;5177;50.068;8.156;2023-01-01T11:02:16;14.30;99.90
10263;DHT22;5177;50.068;8.156;2023-01-01T11:04:46;14.30;99.90
10263;DHT22;5177;50.068;8.156;2023-01-01T11:07:19;14.40;99.90
10263;DHT22;5177;50.068;8.156;2023-01-01T11:09:48;14.30;99.90
10263;DHT22;5177;50.068;8.156;2023-01-01T11:12:16;14.30;99.90
10263;DHT22;5177;50.068;8.156;2023-01-01T11:17:08;14.30;99.90
10263;DHT22;5177;50.068;8.156;2023-01-01T11:19:34;14.30;99.90
10263;DHT22;5177;50.068;8.156;2023-01-01T11:22:03;14.40;99.90
10263;DHT22;5177;50.068;8.156;2023-01-01T11:24:33;14.40;99.90
10263;DHT22;5177;50.068;8.156;2023-01-01T11:27:15;14.40;99.90
10263;DHT22;5177;50.068;8.156;2023-01-01T11:29:41;14.50;99.90
10263;DHT22;5177;50.068;8.156;2023-01-01T11:32:06;14.50;99.90
10263;DHT22;5177;50.068;8.156;2023-01-01T11:34:34;14.60;99.90
10263;DHT22;5177;50.068;8.156;2023-01-01T11:39:42;14.70;99.90
10263;DHT22;5177;50.068;8.156;2023-01-01T11:42:08;14.80;99.90
10263;DHT22;5177;50.068;8.156;2023-01-01T11:44:41;14.80;99.90
10263;DHT22;5177;50.068;8.156;2023-01-01T11:47:18;14.90;99.90
10263;DHT22;5177;50.068;8.156;2023-01-01T11:49:46;14.80;99.90
10263;DHT22;5177;50.068;8.156;2023-01-01T11:57:46;14.90;99.90
10263;DHT22;5177;50.068;8.156;2023-01-01T12:00:15;15.00;99.90
10263;DHT22;5177;50.068;8.156;2023-01-01T12:02:43;15.00;99.90
10263;DHT22;5177;50.068;8.156;2023-01-01T12:05:16;14.90;99.90
10263;DHT22;5177;50.068;8.156;2023-01-01T12:07:43;14.90;99.90
10263;DHT22;5177;50.068;8.156;2023-01-01T12:10:26;15.00;99.90
10263;DHT22;5177;50.068;8.156;2023-01-01T12:13:00;15.10;99.90
10263;DHT22;5177;50.068;8.156;2023-01-01T12:18:15;15.20;99.90
10263;DHT22;5177;50.068;8.156;2023-01-01T12:20:48;15.30;99.90
10263;DHT22;5177;50.068;8.156;2023-01-01T12:23:16;15.30;99.90
10263;DHT22;5177;50.068;8.156;2023-01-01T12:25:43;15.30;99.90
10263;DHT22;5177;50.068;8.156;2023-01-01T12:31:18;15.30;99.90
10263;DHT22;5177;50.068;8.156;2023-01-01T12:36:27;15.30;99.90
10263;DHT22;5177;50.068;8.156;2023-01-01T12:53:54;15.20;99.90
10263;DHT22;5177;50.068;8.156;2023-01-01T12:56:31;15.20;99.90
10263;DHT22;5177;50.068;8.156;2023-01-01T12:59:04;15.20;99.90
10263;DHT22;5177;50.068;8.156;2023-01-01T13:01:30;15.20;99.90
10263;DHT22;5177;50.068;8.156;2023-01-01T13:04:09;15.10;99.90
10263;DHT22;5177;50.068;8.156;2023-01-01T13:06:37;15.10;99.90
10263;DHT22;5177;50.068;8.156;2023-01-01T13:09:05;15.10;99.90
10263;DHT22;5177;50.068;8.156;2023-01-01T13:11:31;15.00;99.90
10263;DHT22;5177;50.068;8.156;2023-01-01T13:13:58;15.00;99.90
10263;DHT22;5177;50.068;8.156;2023-01-01T13:16:34;15.00;99.90
10263;DHT22;5177;50.068;8.156;2023-01-01T13:19:00;15.00;99.90
10263;DHT22;5177;50.068;8.156;2023-01-01T13:21:26;14.90;99.90
10263;DHT22;5177;50.068;8.156;2023-01-01T13:23:53;14.90;99.90
10263;DHT22;5177;50.068;8.156;2023-01-01T13:31:16;14.80;99.90
10263;DHT22;5177;50.068;8.156;2023-01-01T13:33:42;14.70;99.90
10263;DHT22;5177;50.068;8.156;2023-01-01T13:41:27;14.70;99.90
10263;DHT22;5177;50.068;8.156;2023-01-01T13:43:53;14.70;99.90
10263;DHT22;5177;50.068;8.156;2023-01-01T13:51:51;14.60;99.90
10263;DHT22;5177;50.068;8.156;2023-01-01T13:54:24;14.60;99.90
10263;DHT22;5177;50.068;8.156;2023-01-01T13:57:00;14.60;99.90
10263;DHT22;5177;50.068;8.156;2023-01-01T13:59:38;14.50;99.90
10263;DHT22;5177;50.068;8.156;2023-01-01T14:02:20;14.60;99.90
10263;DHT22;5177;50.068;8.156;2023-01-01T14:09:38;14.50;99.90
10263;DHT22;5177;50.068;8.156;2023-01-01T14:12:07;14.50;99.90
10263;DHT22;5177;50.068;8.156;2023-01-01T14:14:33;14.40;99.90
10263;DHT22;5177;50.068;8.156;2023-01-01T14:17:01;14.40;99.90
10263;DHT22;5177;50.068;8.156;2023-01-01T14:19:30;14.40;99.90
10263;DHT22;5177;50.068;8.156;2023-01-01T14:21:56;14.40;99.90
10263;DHT22;5177;50.068;8.156;2023-01-01T14:24:22;14.40;99.90
10263;DHT22;5177;50.068;8.156;2023-01-01T14:26:48;14.40;99.90
10263;DHT22;5177;50.068;8.156;2023-01-01T14:29:16;14.40;99.90
10263;DHT22;5177;50.068;8.156;2023-01-01T14:31:44;14.30;99.90
10263;DHT22;5177;50.068;8.156;2023-01-01T14:34:23;14.30;99.90
10263;DHT22;5177;50.068;8.156;2023-01-01T14:36:53;14.20;99.90
10263;DHT22;5177;50.068;8.156;2023-01-01T14:39:37;14.10;99.90
10263;DHT22;5177;50.068;8.156;2023-01-01T14:42:04;14.10;99.90
10263;DHT22;5177;50.068;8.156;2023-01-01T14:44:35;14.20;99.90
10263;DHT22;5177;50.068;8.156;2023-01-01T14:47:02;14.20;99.90
10263;DHT22;5177;50.068;8.156;2023-01-01T14:49:35;14.20;99.90
10263;DHT22;5177;50.068;8.156;2023-01-01T14:52:02;14.20;99.90
10263;DHT22;5177;50.068;8.156;2023-01-01T14:54:31;14.10;99.90
10263;DHT22;5177;50.068;8.156;2023-01-01T14:56:57;14.00;99.90
10263;DHT22;5177;50.068;8.156;2023-01-01T14:59:27;14.00;99.90
10263;DHT22;5177;50.068;8.156;2023-01-01T15:02:00;14.00;99.90
10263;DHT22;5177;50.068;8.156;2023-01-01T15:04:26;14.00;99.90
10263;DHT22;5177;50.068;8.156;2023-01-01T15:06:55;14.00;99.90
10263;DHT22;5177;50.068;8.156;2023-01-01T15:09:21;13.90;99.90
10263;DHT22;5177;50.068;8.156;2023-01-01T15:11:49;13.90;99.90
10263;DHT22;5177;50.068;8.156;2023-01-01T15:17:00;14.00;99.90
10263;DHT22;5177;50.068;8.156;2023-01-01T15:19:25;13.90;99.90
10263;DHT22;5177;50.068;8.156;2023-01-01T15:21:51;13.90;99.90
10263;DHT22;5177;50.068;8.156;2023-01-01T15:24:18;13.80;99.90
10263;DHT22;5177;50.068;8.156;2023-01-01T15:29:15;13.80;99.90
10263;DHT22;5177;50.068;8.156;2023-01-01T15:31:48;13.80;99.90
10263;DHT22;5177;50.068;8.156;2023-01-01T15:34:22;13.70;99.90
10263;DHT22;5177;50.068;8.156;2023-01-01T15:36:49;13.70;99.90
10263;DHT22;5177;50.068;8.156;2023-01-01T15:39:15;13.70;99.90
10263;DHT22;5177;50.068;8.156;2023-01-01T15:41:41;13.70;99.90
10263;DHT22;5177;50.068;8.156;2023-01-01T15:44:27;13.60;99.90
10263;DHT22;5177;50.068;8.156;2023-01-01T15:47:02;13.70;99.90
10263;DHT22;5177;50.068;8.156;2023-01-01T15:49:28;13.60;99.90
10263;DHT22;5177;50.068;8.156;2023-01-01T15:51:55;13.50;99.90
10263;DHT22;5177;50.068;8.156;2023-01-01T15:54:22;13.40;99.90
10263;DHT22;5177;50.068;8.156;2023-01-01T15:56:48;13.40;99.90
10263;DHT22;5177;50.068;8.156;2023-01-01T15:59:18;13.30;99.90
10263;DHT22;5177;50.068;8.156;2023-01-01T16:01:45;13.30;99.90
10263;DHT22;5177;50.068;8.156;2023-01-01T16:04:24;13.30;99.90
10263;DHT22;5177;50.068;8.156;2023-01-01T16:06:51;13.20;99.90
10263;DHT22;5177;50.068;8.156;2023-01-01T16:09:17;13.20;99.90
10263;DHT22;5177;50.068;8.156;2023-01-01T16:11:43;13.10;99.90
10263;DHT22;5177;50.068;8.156;2023-01-01T16:14:09;13.10;99.90
10263;DHT22;5177;50.068;8.156;2023-01-01T16:16:35;13.10;99.90
10263;DHT22;5177;50.068;8.156;2023-01-01T16:19:02;13.10;99.90
10263;DHT22;5177;50.068;8.156;2023-01-01T16:21:28;13.00;99.90
10263;DHT22;5177;50.068;8.156;2023-01-01T16:23:55;13.00;99.90
10263;DHT22;5177;50.068;8.156;2023-01-01T16:26:20;13.00;99.90
10263;DHT22;5177;50.068;8.156;2023-01-01T16:28:46;12.90;99.90
10263;DHT22;5177;50.068;8.156;2023-01-01T16:31:13;12.90;99.90
10263;DHT22;5177;50.068;8.156;2023-01-01T16:33:40;12.90;99.90
10263;DHT22;5177;50.068;8.156;2023-01-01T16:36:08;12.90;99.90
10263;DHT22;5177;50.068;8.156;2023-01-01T16:38:34;12.90;99.90
10263;DHT22;5177;50.068;8.156;2023-01-01T16:41:00;12.80;99.90
10263;DHT22;5177;50.068;8.156;2023-01-01T16:43:25;12.80;99.90
10263;DHT22;5177;50.068;8.156;2023-01-01T16:45:51;12.80;99.90
10263;DHT22;5177;50.068;8.156;2023-01-01T16:48:17;12.80;99.90
10263;DHT22;5177;50.068;8.156;2023-01-01T16:50:42;12.80;99.90
10263;DHT22;5177;50.068;8.156;2023-01-01T16:53:08;12.80;99.90
10263;DHT22;5177;50.068;8.156;2023-01-01T16:55:33;12.80;99.90
10263;DHT22;5177;50.068;8.156;2023-01-01T16:57:59;12.80;99.90
10263;DHT22;5177;50.068;8.156;2023-01-01T17:00:24;12.80;99.90
10263;DHT22;5177;50.068;8.156;2023-01-01T17:02:50;12.80;99.90
10263;DHT22;5177;50.068;8.156;2023-01-01T17:05:16;12.80;99.90
10263;DHT22;5177;50.068;8.156;2023-01-01T17:07:41;12.80;99.90
10263;DHT22;5177;50.068;8.156;2023-01-01T17:10:07;12.80;99.90
10263;DHT22;5177;50.068;8.156;2023-01-01T17:12:32;12.80;99.90
10263;DHT22;5177;50.068;8.156;2023-01-01T17:14:58;12.80;99.90
10263;DHT22;5177;50.068;8.156;2023-01-01T17:17:23;12.80;99.90
10263;DHT22;5177;50.068;8.156;2023-01-01T17:19:49;12.80;99.90
10263;DHT22;5177;50.068;8.156;2023-01-01T17:22:15;12.60;99.90
10263;DHT22;5177;50.068;8.156;2023-01-01T17:24:40;12.60;99.90